Time;durP1;ratioP1;P1;durP2;ratioP2;P2;SDS_P1;SDS_P2;PMS_P1;PMS_P2;Temp;Humidity;BMP_temperature;BMP_pressure;BME280_temperature;BME280_humidity;BME280_pressure;Samples;Min_cycle;Max_cycle;Signal;HPM_P1;HPM_P2
2022/07/14 00:01:20;;;;;;;15.93;2.33;;;14.70;99.90;;;;;;5037531;28;20074;-95
2022/07/14 00:03:46;;;;;;;14.30;2.13;;;14.70;99.90;;;;;;5036971;28;20098;-95
2022/07/14 00:06:13;;;;;;;12.38;2.33;;;14.60;99.90;;;;;;5051409;28;20045;-95
2022/07/14 00:08:39;;;;;;;16.52;2.60;;;14.60;99.90;;;;;;5052139;28;20106;-95
2022/07/14 00:11:05;;;;;;;12.27;2.20;;;14.60;99.90;;;;;;5052494;28;20037;-94
2022/07/14 00:13:32;;;;;;;15.25;2.28;;;14.60;99.90;;;;;;5034518;28;20075;-94
2022/07/14 00:15:57;;;;;;;11.43;1.83;;;14.50;99.90;;;;;;5035972;28;20052;-94
2022/07/14 00:18:23;;;;;;;12.77;1.80;;;14.50;99.90;;;;;;5035131;28;20075;-95
2022/07/14 00:20:49;;;;;;;9.18;1.75;;;14.50;99.90;;;;;;5034952;28;20044;-95
2022/07/14 00:23:15;;;;;;;15.25;2.10;;;14.40;99.90;;;;;;5035905;28;20256;-94
2022/07/14 00:25:42;;;;;;;12.63;1.95;;;14.30;99.90;;;;;;5034920;28;20051;-95
2022/07/14 00:28:08;;;;;;;9.50;2.17;;;14.30;99.90;;;;;;5033281;28;20076;-95
2022/07/14 00:30:34;;;;;;;10.25;1.88;;;14.30;99.90;;;;;;5015800;28;20049;-95
2022/07/14 00:33:00;;;;;;;9.95;1.80;;;14.20;99.90;;;;;;5015444;28;20043;-94
2022/07/14 00:35:25;;;;;;;8.93;1.65;;;14.20;99.90;;;;;;5014962;28;20918;-94
2022/07/14 00:37:51;;;;;;;9.93;1.80;;;14.00;99.90;;;;;;5015460;28;20128;-94
2022/07/14 00:40:17;;;;;;;8.18;1.30;;;14.00;99.90;;;;;;5014803;28;20044;-95
2022/07/14 00:42:48;;;;;;;10.80;1.85;;;13.90;99.90;;;;;;5015642;28;20052;-95
2022/07/14 00:45:16;;;;;;;10.98;1.85;;;13.90;99.90;;;;;;5015570;28;20060;-94
2022/07/14 00:47:44;;;;;;;10.25;1.60;;;13.80;99.90;;;;;;5015140;28;20091;-94
2022/07/14 00:50:11;;;;;;;8.48;1.50;;;13.80;99.90;;;;;;5015100;28;20080;-94
2022/07/14 00:52:38;;;;;;;9.02;1.85;;;13.70;99.90;;;;;;5015565;28;20083;-94
2022/07/14 00:55:04;;;;;;;11.13;1.90;;;13.70;99.90;;;;;;5014347;28;20045;-94
2022/07/14 00:57:30;;;;;;;9.68;1.60;;;13.60;99.90;;;;;;5016976;28;20052;-94
2022/07/14 00:59:56;;;;;;;13.07;1.77;;;13.60;99.90;;;;;;5015114;28;20044;-94
2022/07/14 01:02:22;;;;;;;9.90;1.55;;;13.60;99.90;;;;;;5014766;28;20326;-94
2022/07/14 01:04:49;;;;;;;8.70;1.60;;;13.50;99.90;;;;;;5014991;28;20073;-95
2022/07/14 01:07:16;;;;;;;7.88;1.60;;;13.50;99.90;;;;;;5031570;28;20048;-95
2022/07/14 01:09:43;;;;;;;8.80;1.75;;;13.50;99.90;;;;;;5014604;28;20057;-94
2022/07/14 01:12:10;;;;;;;9.02;1.80;;;13.50;99.90;;;;;;5015069;28;20076;-94
2022/07/14 01:14:37;;;;;;;7.10;1.40;;;13.40;99.90;;;;;;5014846;28;20236;-94
2022/07/14 01:17:04;;;;;;;6.88;1.98;;;13.40;99.90;;;;;;5015039;28;20103;-94
2022/07/14 01:19:30;;;;;;;10.98;1.90;;;13.40;99.90;;;;;;5034260;28;20045;-94
2022/07/14 01:21:56;;;;;;;8.93;1.75;;;13.30;99.90;;;;;;5033815;28;20040;-95
2022/07/14 01:24:23;;;;;;;12.65;1.90;;;13.30;99.90;;;;;;5034767;28;20105;-94
2022/07/14 01:26:49;;;;;;;9.55;2.00;;;13.30;99.90;;;;;;5035129;28;20051;-94
2022/07/14 01:29:15;;;;;;;11.88;1.85;;;13.30;99.90;;;;;;5034086;28;20045;-95
2022/07/14 01:31:41;;;;;;;6.82;1.50;;;13.20;99.90;;;;;;5035073;28;20044;-95
2022/07/14 01:34:07;;;;;;;9.02;2.20;;;13.30;99.90;;;;;;5035048;28;20068;-95
2022/07/14 01:36:33;;;;;;;9.60;1.95;;;13.20;99.90;;;;;;5033642;28;20087;-95
2022/07/14 01:38:59;;;;;;;12.23;2.22;;;13.20;99.90;;;;;;5036676;28;20052;-95
2022/07/14 01:41:25;;;;;;;13.55;2.38;;;13.20;99.90;;;;;;5034427;28;20099;-94
2022/07/14 01:43:51;;;;;;;14.55;2.03;;;13.10;99.90;;;;;;5034355;28;20044;-94
2022/07/14 01:46:17;;;;;;;16.27;2.47;;;13.10;99.90;;;;;;5034438;28;20102;-94
2022/07/14 01:48:43;;;;;;;6.03;1.77;;;13.10;99.90;;;;;;5034899;28;20041;-95
2022/07/14 01:51:09;;;;;;;7.03;1.75;;;13.10;99.90;;;;;;5037195;28;20152;-94
2022/07/14 01:53:35;;;;;;;9.57;1.55;;;13.00;99.90;;;;;;5038359;28;20067;-94
2022/07/14 01:56:01;;;;;;;8.18;1.33;;;13.00;99.90;;;;;;5022416;28;20493;-94
2022/07/14 01:58:27;;;;;;;7.88;1.70;;;12.90;99.90;;;;;;5034064;28;20049;-95
2022/07/14 02:03:37;;;;;;;6.30;1.45;;;12.80;99.90;;;;;;5034580;28;20060;-94
2022/07/14 02:06:04;;;;;;;9.70;1.85;;;12.70;99.90;;;;;;5017031;28;20436;-94
2022/07/14 02:08:29;;;;;;;9.95;1.60;;;12.70;99.90;;;;;;5018426;28;20076;-95
2022/07/14 02:13:40;;;;;;;5.72;0.90;;;12.70;99.90;;;;;;5028089;28;20060;-95
2022/07/14 02:16:05;;;;;;;5.07;1.38;;;12.60;99.90;;;;;;5034769;28;20041;-94
2022/07/14 02:18:31;;;;;;;7.03;1.52;;;12.60;99.90;;;;;;5017754;28;20036;-95
2022/07/14 02:20:57;;;;;;;7.35;1.58;;;12.50;99.90;;;;;;5017509;28;20550;-95
2022/07/14 02:23:23;;;;;;;12.80;2.35;;;12.50;99.90;;;;;;5017688;28;20040;-95
2022/07/14 02:25:49;;;;;;;4.22;0.95;;;12.50;99.90;;;;;;5017280;28;20037;-95
2022/07/14 02:28:16;;;;;;;5.00;1.08;;;12.50;99.90;;;;;;5017555;28;20116;-94
2022/07/14 02:30:42;;;;;;;3.38;0.70;;;12.40;99.90;;;;;;5019034;28;20052;-94
2022/07/14 02:33:08;;;;;;;3.13;0.68;;;12.40;99.90;;;;;;5018813;28;20145;-95
2022/07/14 02:35:35;;;;;;;8.07;2.00;;;12.40;99.90;;;;;;5016989;28;20085;-95
2022/07/14 02:38:00;;;;;;;4.97;1.10;;;12.30;99.90;;;;;;5017858;28;20044;-94
2022/07/14 02:40:26;;;;;;;8.25;1.63;;;12.30;99.90;;;;;;5016989;28;20087;-94
2022/07/14 02:42:52;;;;;;;7.10;1.95;;;12.20;99.90;;;;;;5017676;28;20061;-94
2022/07/14 02:45:18;;;;;;;10.32;2.70;;;12.30;99.90;;;;;;5017457;28;20087;-95
2022/07/14 02:47:44;;;;;;;6.07;1.50;;;12.20;99.90;;;;;;5017313;28;20041;-94
2022/07/14 02:50:10;;;;;;;7.10;1.48;;;12.30;99.90;;;;;;5016739;28;20063;-95
2022/07/14 02:52:36;;;;;;;9.90;1.60;;;12.20;99.90;;;;;;5017817;28;20127;-94
2022/07/14 02:55:03;;;;;;;6.32;1.60;;;12.20;99.90;;;;;;5017143;28;20076;-93
2022/07/14 02:57:29;;;;;;;4.55;1.05;;;12.20;99.90;;;;;;5017387;28;20044;-94
2022/07/14 02:59:54;;;;;;;3.80;1.13;;;12.20;99.90;;;;;;5017498;28;20044;-94
2022/07/14 03:02:20;;;;;;;3.70;1.00;;;12.10;99.90;;;;;;5015493;28;20045;-95
2022/07/14 03:04:46;;;;;;;0.98;0.30;;;12.10;99.90;;;;;;5033364;28;20052;-94
2022/07/14 03:07:12;;;;;;;1.85;0.30;;;12.10;99.90;;;;;;5016855;28;20045;-95
2022/07/14 03:09:45;;;;;;;2.70;0.45;;;12.00;99.90;;;;;;5018437;28;20044;-94
2022/07/14 03:12:11;;;;;;;5.53;1.00;;;12.00;99.90;;;;;;5017183;28;20041;-95
2022/07/14 03:14:37;;;;;;;3.85;1.10;;;11.90;99.90;;;;;;5016520;28;20048;-95
2022/07/14 03:17:02;;;;;;;5.13;1.02;;;11.90;99.90;;;;;;5017127;28;20574;-94
2022/07/14 03:19:28;;;;;;;3.78;1.33;;;11.90;99.90;;;;;;5016492;28;20041;-94
2022/07/14 03:21:54;;;;;;;8.07;2.22;;;11.90;99.90;;;;;;5032876;28;20045;-95
2022/07/14 03:24:20;;;;;;;6.50;2.10;;;11.80;99.90;;;;;;5033753;28;20078;-95
2022/07/14 03:26:46;;;;;;;10.55;2.30;;;11.90;99.90;;;;;;5018453;28;20048;-95
2022/07/14 03:29:12;;;;;;;11.25;2.55;;;11.90;99.90;;;;;;5035149;28;20135;-95
2022/07/14 03:31:38;;;;;;;13.27;2.53;;;11.90;99.90;;;;;;5016818;28;20108;-95
2022/07/14 03:34:04;;;;;;;10.88;1.90;;;11.90;99.90;;;;;;5016667;28;20461;-95
2022/07/14 03:36:30;;;;;;;5.22;1.60;;;11.90;99.90;;;;;;5031872;28;20037;-94
2022/07/14 03:38:56;;;;;;;6.22;1.60;;;11.90;99.90;;;;;;5016486;28;20459;-94
2022/07/14 03:41:22;;;;;;;5.43;1.73;;;11.90;99.90;;;;;;5032792;28;20041;-94
2022/07/14 03:43:48;;;;;;;11.68;2.45;;;11.90;99.90;;;;;;5034342;28;20037;-95
2022/07/14 03:46:13;;;;;;;9.32;1.80;;;11.90;99.90;;;;;;5032808;28;20045;-94
2022/07/14 03:48:39;;;;;;;9.68;1.60;;;12.00;99.90;;;;;;5036311;28;20095;-93
2022/07/14 03:51:06;;;;;;;6.72;1.17;;;12.00;99.90;;;;;;5015307;28;20472;-94
2022/07/14 03:53:32;;;;;;;5.93;1.33;;;12.00;99.90;;;;;;5019316;28;20051;-95
2022/07/14 03:55:58;;;;;;;6.65;1.35;;;12.00;99.90;;;;;;5030399;28;20033;-96
2022/07/14 03:58:24;;;;;;;5.55;1.23;;;12.00;99.90;;;;;;5049343;28;20087;-94
2022/07/14 04:00:51;;;;;;;9.02;2.00;;;12.00;99.90;;;;;;5034728;28;20044;-93
2022/07/14 04:03:16;;;;;;;7.55;1.80;;;12.00;99.90;;;;;;5032920;28;20045;-95
2022/07/14 04:05:43;;;;;;;8.75;1.65;;;12.10;99.90;;;;;;5033568;28;20535;-94
2022/07/14 04:08:13;;;;;;;9.38;2.00;;;12.10;99.90;;;;;;5033753;28;20086;-96
2022/07/14 04:10:39;;;;;;;7.20;1.88;;;12.10;99.90;;;;;;5035445;28;20385;-95
2022/07/14 04:13:05;;;;;;;11.70;1.95;;;12.10;99.90;;;;;;5035456;28;20037;-94
2022/07/14 04:15:31;;;;;;;9.15;2.30;;;12.10;99.90;;;;;;5033210;28;20053;-94
2022/07/14 04:17:58;;;;;;;16.48;2.55;;;12.10;99.90;;;;;;5033283;28;20041;-95
2022/07/14 04:20:24;;;;;;;8.90;1.70;;;12.20;99.90;;;;;;5051576;28;20087;-95
2022/07/14 04:22:50;;;;;;;8.23;2.00;;;12.20;99.90;;;;;;5034330;28;20033;-95
2022/07/14 04:25:16;;;;;;;27.05;3.42;;;12.30;99.90;;;;;;5034271;28;20044;-94
2022/07/14 04:27:42;;;;;;;8.65;1.52;;;12.30;99.90;;;;;;5035916;28;20054;-93
2022/07/14 04:30:10;;;;;;;11.77;1.98;;;12.30;99.90;;;;;;5050496;28;20051;-95
2022/07/14 04:32:36;;;;;;;9.13;1.75;;;12.40;99.90;;;;;;5047880;28;20473;-92
2022/07/14 04:35:03;;;;;;;11.02;2.15;;;12.50;99.90;;;;;;5032033;28;20041;-92
2022/07/14 04:37:29;;;;;;;7.25;1.90;;;12.50;99.90;;;;;;5032130;28;20452;-93
2022/07/14 04:39:55;;;;;;;13.27;2.55;;;12.50;99.90;;;;;;5031311;28;20100;-92
2022/07/14 04:42:22;;;;;;;10.32;2.42;;;12.60;99.90;;;;;;5032456;28;20096;-95
2022/07/14 04:44:48;;;;;;;10.68;1.95;;;12.30;99.90;;;;;;5043187;28;20098;-95
2022/07/14 04:47:14;;;;;;;15.35;1.70;;;12.70;99.90;;;;;;5016646;28;20041;-95
2022/07/14 04:52:25;;;;;;;7.90;1.58;;;12.80;99.90;;;;;;5031394;28;20045;-95
2022/07/14 04:54:51;;;;;;;12.40;2.35;;;12.90;99.90;;;;;;5015168;28;20091;-95
2022/07/14 04:57:17;;;;;;;15.18;2.05;;;13.00;99.90;;;;;;5017633;28;20161;-93
2022/07/14 04:59:43;;;;;;;9.60;1.95;;;13.00;99.90;;;;;;5017513;28;20052;-94
2022/07/14 05:02:08;;;;;;;15.93;2.03;;;13.10;99.90;;;;;;5017477;28;20041;-95
2022/07/14 05:04:35;;;;;;;7.20;1.40;;;13.30;99.90;;;;;;5018337;28;20114;-95
2022/07/14 05:07:00;;;;;;;10.18;1.27;;;13.40;99.90;;;;;;5031836;28;20044;-94
2022/07/14 05:09:30;;;;;;;14.23;1.88;;;13.60;99.90;;;;;;5014864;28;20041;-95
2022/07/14 05:11:56;;;;;;;5.30;1.25;;;13.80;99.90;;;;;;5017515;28;20045;-95
2022/07/14 05:14:21;;;;;;;5.72;1.02;;;13.90;99.90;;;;;;5014985;28;20048;-95
2022/07/14 05:16:48;;;;;;;10.52;1.20;;;14.00;99.90;;;;;;5017436;28;20056;-94
2022/07/14 05:19:16;;;;;;;15.63;1.60;;;14.10;99.90;;;;;;5033101;28;20047;-95
2022/07/14 05:21:42;;;;;;;7.22;1.60;;;14.30;99.90;;;;;;5017989;28;20040;-94
2022/07/14 05:24:09;;;;;;;13.43;1.92;;;14.40;99.90;;;;;;5032435;28;20056;-96
2022/07/14 05:26:36;;;;;;;6.53;1.13;;;14.60;99.90;;;;;;5035644;28;20048;-95
2022/07/14 05:29:02;;;;;;;10.25;1.55;;;14.70;99.90;;;;;;5027723;28;20399;-94
2022/07/14 05:31:27;;;;;;;12.23;1.85;;;14.90;99.90;;;;;;5062538;28;20036;-95
2022/07/14 05:33:56;;;;;;;10.25;1.60;;;15.10;99.90;;;;;;5060080;28;20518;-95
2022/07/14 05:36:23;;;;;;;12.80;1.70;;;15.10;99.90;;;;;;5053103;28;20460;-95
2022/07/14 05:38:49;;;;;;;15.75;1.63;;;15.20;99.90;;;;;;5039056;28;20048;-95
2022/07/14 05:41:15;;;;;;;11.68;1.17;;;15.20;99.90;;;;;;5045124;28;20047;-95
2022/07/14 05:43:41;;;;;;;8.93;1.00;;;15.40;99.90;;;;;;5046215;28;20138;-95
2022/07/14 05:46:10;;;;;;;8.50;1.10;;;15.40;99.90;;;;;;5043826;28;20048;-95
2022/07/14 05:48:37;;;;;;;5.03;0.98;;;15.60;99.90;;;;;;5058507;28;20040;-95
2022/07/14 05:51:11;;;;;;;8.48;1.15;;;15.70;99.90;;;;;;5057503;28;20048;-95
2022/07/14 05:53:38;;;;;;;6.72;0.90;;;15.80;99.90;;;;;;5052263;28;20135;-94
2022/07/14 05:56:05;;;;;;;5.65;1.05;;;15.90;99.90;;;;;;5058490;28;20071;-94
2022/07/14 05:58:32;;;;;;;13.07;1.60;;;16.00;99.90;;;;;;5058200;28;20113;-96
2022/07/14 06:00:58;;;;;;;10.32;1.13;;;16.10;99.90;;;;;;5059784;28;20040;-95
2022/07/14 06:03:24;;;;;;;8.52;1.20;;;16.10;99.90;;;;;;5055988;28;20460;-95
2022/07/14 06:05:51;;;;;;;8.15;1.10;;;16.20;99.90;;;;;;5038064;28;20535;-95
2022/07/14 06:08:16;;;;;;;8.13;1.33;;;16.30;99.90;;;;;;5035436;28;20374;-95
2022/07/14 06:10:42;;;;;;;13.20;1.40;;;16.40;99.90;;;;;;5037733;28;20052;-94
2022/07/14 06:13:08;;;;;;;6.47;0.90;;;16.50;99.90;;;;;;5038044;28;20043;-96
2022/07/14 06:15:34;;;;;;;8.20;1.17;;;16.50;99.90;;;;;;5055583;28;20041;-95
2022/07/14 06:18:00;;;;;;;6.78;1.05;;;16.70;99.90;;;;;;5038124;28;20046;-96
2022/07/14 06:20:26;;;;;;;7.10;1.48;;;16.80;99.90;;;;;;5038830;28;20135;-95
2022/07/14 06:22:51;;;;;;;9.48;1.25;;;16.90;99.90;;;;;;5038409;28;20037;-95
2022/07/14 06:25:17;;;;;;;11.10;1.25;;;17.00;99.90;;;;;;5037012;28;20094;-95
2022/07/14 06:27:43;;;;;;;7.03;1.17;;;17.00;99.90;;;;;;5037789;28;20117;-96
2022/07/14 06:30:09;;;;;;;11.23;1.08;;;17.10;99.90;;;;;;5037975;28;20177;-95
2022/07/14 06:32:43;;;;;;;9.85;0.95;;;17.30;99.90;;;;;;5036920;28;20654;-96
2022/07/14 06:35:10;;;;;;;4.78;0.70;;;17.40;99.90;;;;;;5038964;28;20190;-95
2022/07/14 06:37:36;;;;;;;11.10;1.20;;;17.50;99.90;;;;;;5023741;28;20049;-95
2022/07/14 06:40:07;;;;;;;15.07;1.40;;;17.60;99.90;;;;;;5039322;28;20527;-95
2022/07/14 06:42:33;;;;;;;11.57;0.90;;;17.60;99.90;;;;;;5030986;28;20059;-95
2022/07/14 06:44:59;;;;;;;6.57;0.95;;;17.80;99.90;;;;;;5034394;28;20051;-95
2022/07/14 06:47:25;;;;;;;9.27;0.98;;;17.90;99.90;;;;;;5016531;28;20315;-96
2022/07/14 06:49:57;;;;;;;7.18;1.10;;;17.90;99.90;;;;;;5020037;28;20028;-95
2022/07/14 06:52:31;;;;;;;6.07;1.00;;;17.90;99.90;;;;;;5041524;28;20296;-96
2022/07/14 06:55:03;;;;;;;5.93;0.68;;;17.80;99.90;;;;;;5016685;28;20075;-96
2022/07/14 06:57:32;;;;;;;7.70;1.20;;;17.90;99.90;;;;;;5018712;28;20128;-96
2022/07/14 07:00:03;;;;;;;8.73;1.00;;;18.00;99.90;;;;;;5016931;28;20044;-95
2022/07/14 07:02:36;;;;;;;3.50;0.50;;;18.10;99.90;;;;;;5046987;28;20028;-96
2022/07/14 07:08:31;;;;;;;;;;;;;;;;;;;;;
2022/07/14 07:11:03;;;;;;;3.28;0.50;;;18.10;99.90;;;;;;5056047;28;20139;-96
2022/07/14 07:13:31;;;;;;;8.20;0.70;;;18.00;99.90;;;;;;5042211;28;20044;-96
2022/07/14 07:15:57;;;;;;;7.40;1.33;;;17.80;99.90;;;;;;5042598;28;20044;-96
2022/07/14 07:18:26;;;;;;;8.32;0.80;;;18.10;99.90;;;;;;5037711;28;20032;-96
2022/07/14 07:20:57;;;;;;;7.28;0.95;;;18.00;99.90;;;;;;5046348;28;20051;-96
2022/07/14 07:23:41;;;;;;;9.73;1.02;;;18.20;99.90;;;;;;5033065;28;20419;-96
2022/07/14 07:26:27;;;;;;;;;;;;;;;;;;;;;
2022/07/14 07:28:53;;;;;;;6.30;0.65;;;18.50;99.90;;;;;;5053307;28;20542;-96
2022/07/14 07:31:20;;;;;;;10.25;1.10;;;18.60;99.90;;;;;;5037333;28;20049;-92
2022/07/14 07:33:46;;;;;;;6.85;0.85;;;18.70;99.90;;;;;;5036045;28;20055;-94
2022/07/14 07:36:12;;;;;;;6.43;0.60;;;18.80;99.90;;;;;;5040336;28;20036;-93
2022/07/14 07:38:38;;;;;;;6.15;0.65;;;19.00;99.90;;;;;;5037091;28;20493;-93
2022/07/14 07:41:04;;;;;;;6.65;1.35;;;19.20;99.90;;;;;;5037243;28;20131;-93
2022/07/14 07:43:30;;;;;;;3.08;0.50;;;19.40;99.90;;;;;;5035959;28;20052;-93
2022/07/14 07:45:56;;;;;;;2.53;0.40;;;19.50;99.90;;;;;;5037069;28;20045;-96
2022/07/14 07:48:22;;;;;;;6.22;0.73;;;19.50;99.90;;;;;;5035466;28;20045;-93
2022/07/14 07:50:48;;;;;;;5.07;0.57;;;19.30;99.90;;;;;;5035977;28;20074;-96
2022/07/14 07:53:14;;;;;;;4.90;0.60;;;19.20;99.90;;;;;;5036586;28;20052;-93
2022/07/14 07:55:40;;;;;;;7.32;0.80;;;19.20;99.90;;;;;;5037065;28;20571;-93
2022/07/14 07:58:07;;;;;;;4.93;0.57;;;19.40;99.90;;;;;;5039663;28;20115;-96
2022/07/14 08:00:50;;;;;;;4.80;0.47;;;19.60;99.90;;;;;;5046627;28;20048;-96
2022/07/14 08:03:15;;;;;;;3.85;0.55;;;19.80;99.90;;;;;;5012114;28;20045;-96
2022/07/14 08:05:42;;;;;;;6.25;0.50;;;19.80;99.90;;;;;;5013130;28;20052;-96
2022/07/14 08:08:10;;;;;;;8.93;0.70;;;19.70;99.90;;;;;;5013035;28;20053;-96
2022/07/14 08:10:39;;;;;;;2.45;0.30;;;19.90;99.90;;;;;;4998340;28;20460;-96
2022/07/14 08:13:21;;;;;;;8.10;0.40;;;19.90;99.90;;;;;;5012868;28;20533;-96
2022/07/14 08:15:49;;;;;;;4.47;0.52;;;20.10;99.90;;;;;;5036726;22;20053;-87
2022/07/14 08:18:18;;;;;;;5.13;0.70;;;20.40;99.90;;;;;;5017007;28;20059;-88
2022/07/14 08:20:44;;;;;;;5.40;0.63;;;20.50;99.90;;;;;;5016056;28;20076;-88
2022/07/14 08:23:10;;;;;;;3.15;0.50;;;20.60;99.90;;;;;;5016912;28;20134;-89
2022/07/14 08:25:36;;;;;;;4.05;0.52;;;20.60;99.90;;;;;;5016135;28;20469;-89
2022/07/14 08:28:01;;;;;;;4.47;0.50;;;20.60;99.90;;;;;;5017157;28;20045;-89
2022/07/14 08:30:36;;;;;;;6.30;0.80;;;20.60;99.90;;;;;;5015974;28;20045;-89
2022/07/14 08:33:02;;;;;;;2.58;0.30;;;20.70;99.90;;;;;;5016995;28;20132;-89
2022/07/14 08:35:28;;;;;;;3.38;0.52;;;20.90;99.90;;;;;;5016279;28;20131;-90
2022/07/14 08:37:55;;;;;;;7.47;0.98;;;21.10;99.90;;;;;;5015988;28;20041;-89
2022/07/14 08:40:30;;;;;;;6.75;0.60;;;21.00;99.90;;;;;;5050442;28;20051;-89
2022/07/14 08:42:59;;;;;;;6.40;0.85;;;21.00;99.90;;;;;;5017198;28;20183;-88
2022/07/14 08:45:26;;;;;;;4.85;0.50;;;20.90;99.90;;;;;;5015759;28;20037;-91
2022/07/14 08:47:53;;;;;;;5.72;0.60;;;20.90;99.90;;;;;;5016745;28;20041;-89
2022/07/14 08:50:20;;;;;;;6.93;0.73;;;20.90;99.90;;;;;;5016061;28;20480;-89
2022/07/14 08:52:47;;;;;;;5.07;0.60;;;20.90;99.90;;;;;;5017020;28;20095;-90
2022/07/14 08:55:15;;;;;;;6.63;0.80;;;20.80;99.90;;;;;;5016410;28;20138;-89
2022/07/14 08:57:41;;;;;;;4.72;0.75;;;20.70;99.90;;;;;;5049371;28;20049;-92
2022/07/14 09:00:14;;;;;;;6.60;0.70;;;20.60;99.90;;;;;;5017665;28;20688;-89
2022/07/14 09:02:48;;;;;;;10.25;0.70;;;20.50;99.90;;;;;;5020961;28;20103;-90
2022/07/14 09:05:17;;;;;;;6.05;0.60;;;20.50;99.90;;;;;;5019614;28;20135;-90
2022/07/14 09:07:44;;;;;;;2.30;0.50;;;20.70;99.90;;;;;;5020181;28;20485;-89
2022/07/14 09:10:17;;;;;;;6.88;0.80;;;21.00;99.90;;;;;;5053126;28;20040;-89
2022/07/14 09:12:44;;;;;;;4.93;0.60;;;21.10;99.90;;;;;;5020236;28;20051;-89
2022/07/14 09:18:12;;;;;;;9.00;0.60;;;21.10;99.90;;;;;;5036839;28;20044;-91
2022/07/14 09:20:38;;;;;;;6.90;0.68;;;21.20;99.90;;;;;;5019484;28;20088;-91
2022/07/14 09:23:05;;;;;;;4.78;0.50;;;21.30;99.90;;;;;;5019993;28;20044;-89
2022/07/14 09:25:41;;;;;;;3.92;0.40;;;21.10;99.90;;;;;;5019414;28;20114;-89
2022/07/14 09:28:07;;;;;;;10.60;0.80;;;21.00;99.90;;;;;;5020064;28;20044;-91
2022/07/14 09:30:33;;;;;;;4.53;0.60;;;20.90;99.90;;;;;;5019012;28;20052;-92
2022/07/14 09:33:03;;;;;;;5.72;0.73;;;20.90;99.90;;;;;;5020136;28;20088;-90
2022/07/14 09:35:34;;;;;;;8.18;0.82;;;21.00;99.90;;;;;;5019709;28;20106;-90
2022/07/14 09:38:01;;;;;;;5.07;0.60;;;21.00;99.90;;;;;;5020890;28;20127;-90
2022/07/14 09:40:30;;;;;;;3.58;0.63;;;21.30;99.90;;;;;;5019713;28;20044;-90
2022/07/14 09:42:58;;;;;;;3.58;0.35;;;21.30;99.90;;;;;;5020006;28;20118;-90
2022/07/14 09:45:45;;;;;;;3.30;0.50;;;21.20;99.90;;;;;;5019102;28;20079;-90
2022/07/14 09:48:13;;;;;;;5.15;0.52;;;21.40;99.90;;;;;;5020072;28;20049;-90
2022/07/14 09:50:47;;;;;;;3.03;0.40;;;21.50;99.90;;;;;;5019791;28;20045;-90
2022/07/14 09:53:26;;;;;;;5.18;0.45;;;21.70;99.90;;;;;;5019759;28;20045;-89
2022/07/14 09:55:53;;;;;;;6.78;0.70;;;21.90;99.90;;;;;;5020060;28;20117;-89
2022/07/14 09:58:24;;;;;;;6.05;0.68;;;22.00;99.90;;;;;;5019616;28;20055;-89
2022/07/14 10:00:56;;;;;;;8.75;0.50;;;21.90;99.90;;;;;;5019737;28;20041;-90
2022/07/14 10:03:24;;;;;;;3.70;0.68;;;21.70;99.90;;;;;;5018758;28;20048;-90
2022/07/14 10:05:53;;;;;;;5.53;0.60;;;21.70;99.90;;;;;;5019120;28;20040;-90
2022/07/14 10:08:24;;;;;;;5.82;0.57;;;21.60;99.90;;;;;;5019117;28;20076;-89
2022/07/14 10:10:51;;;;;;;3.00;0.43;;;21.50;99.90;;;;;;5019400;28;20053;-91
2022/07/14 10:13:31;;;;;;;5.70;0.40;;;21.60;99.90;;;;;;5019539;28;20049;-91
2022/07/14 10:16:02;;;;;;;4.45;0.60;;;21.60;99.90;;;;;;5018623;28;20186;-92
2022/07/14 10:18:28;;;;;;;3.90;0.40;;;21.60;99.90;;;;;;5052236;28;20130;-90
2022/07/14 10:21:04;;;;;;;6.65;0.45;;;21.70;99.90;;;;;;5018696;28;20052;-92
2022/07/14 10:23:43;;;;;;;5.40;0.63;;;21.60;99.90;;;;;;5019142;28;20041;-92
2022/07/14 10:26:10;;;;;;;4.78;0.65;;;21.90;99.90;;;;;;5051980;28;20059;-90
2022/07/14 10:28:56;;;;;;;2.17;0.40;;;22.00;99.90;;;;;;5035772;28;20096;-91
2022/07/14 10:31:35;;;;;;;3.70;0.60;;;21.90;99.90;;;;;;5018331;28;20049;-92
2022/07/14 10:34:43;;;;;;;8.85;0.45;;;21.80;99.90;;;;;;5018859;28;20112;-91
2022/07/14 10:37:48;;;;;;;8.10;0.32;;;21.70;99.90;;;;;;5018787;28;20087;-92
2022/07/14 10:40:49;;;;;;;;;;;;;;;;;;;;;
2022/07/14 10:43:40;;;;;;;6.90;0.50;;;21.90;99.90;;;;;;5068161;28;20435;-90
2022/07/14 10:46:35;;;;;;;2.55;0.50;;;21.80;99.90;;;;;;5018491;28;20138;-92
2022/07/14 10:49:03;;;;;;;2.83;0.98;;;21.80;99.90;;;;;;5020796;28;20069;-90
2022/07/14 10:51:43;;;;;;;3.45;0.68;;;21.50;99.90;;;;;;5018171;28;20040;-92
2022/07/14 10:54:12;;;;;;;2.78;0.50;;;21.20;99.90;;;;;;5018565;28;20077;-90
2022/07/14 10:56:40;;;;;;;4.32;0.68;;;21.00;99.90;;;;;;5018640;28;20059;-90
2022/07/14 10:59:25;;;;;;;5.85;0.55;;;20.90;99.90;;;;;;5051549;28;20041;-91
2022/07/14 11:02:11;;;;;;;3.30;0.55;;;20.80;99.90;;;;;;5019134;28;20044;-90
2022/07/14 11:11:24;;;;;;;4.13;0.40;;;20.70;99.90;;;;;;5038838;22;20055;-94
2022/07/14 11:14:03;;;;;;;5.53;0.80;;;20.70;99.90;;;;;;5020221;28;20564;-96
2022/07/14 11:16:46;;;;;;;5.18;0.60;;;20.90;99.90;;;;;;5019832;28;20053;-95
2022/07/14 11:19:28;;;;;;;4.38;0.55;;;20.80;99.90;;;;;;5017339;28;20485;-96
2022/07/14 11:22:17;;;;;;;7.38;0.57;;;20.80;99.90;;;;;;5018495;28;20060;-94
2022/07/14 11:24:49;;;;;;;7.63;0.95;;;20.70;99.90;;;;;;5017848;28;20049;-94
2022/07/14 11:27:30;;;;;;;17.42;0.80;;;20.60;99.90;;;;;;5018753;28;20060;-93
2022/07/14 11:30:15;;;;;;;4.68;0.63;;;20.80;99.90;;;;;;5016829;28;20195;-93
2022/07/14 11:32:42;;;;;;;5.60;0.60;;;20.80;99.90;;;;;;5016504;28;20044;-92
2022/07/14 11:37:57;;;;;;;4.85;0.52;;;21.20;99.90;;;;;;5024890;28;20140;-94
2022/07/14 11:40:43;;;;;;;7.47;0.70;;;21.40;99.90;;;;;;5012950;28;20073;-93
2022/07/14 11:43:28;;;;;;;3.97;0.50;;;21.90;99.90;;;;;;5013770;28;20378;-92
2022/07/14 11:46:06;;;;;;;7.88;0.85;;;22.10;99.90;;;;;;5014278;28;20132;-94
2022/07/14 11:48:39;;;;;;;2.75;0.60;;;22.20;99.90;;;;;;5012930;28;20049;-96
2022/07/14 11:51:09;;;;;;;4.05;0.40;;;22.30;99.90;;;;;;5012546;28;20052;-95
2022/07/14 11:53:36;;;;;;;6.45;0.60;;;22.30;99.90;;;;;;5015296;28;20072;-95
2022/07/14 11:56:03;;;;;;;6.10;0.73;;;22.30;99.90;;;;;;5013612;28;20046;-94
2022/07/14 11:58:30;;;;;;;7.50;0.90;;;22.10;99.90;;;;;;4991045;28;20127;-93
2022/07/14 12:00:58;;;;;;;5.80;0.98;;;22.10;99.90;;;;;;5014509;28;20048;-94
2022/07/14 12:03:25;;;;;;;5.93;0.52;;;22.10;99.90;;;;;;5014307;28;20049;-94
2022/07/14 12:05:53;;;;;;;9.65;0.70;;;22.00;99.90;;;;;;4996459;28;20049;-93
2022/07/14 12:08:25;;;;;;;7.05;0.80;;;21.90;99.90;;;;;;5001595;28;20533;-94
2022/07/14 12:10:51;;;;;;;6.93;0.50;;;21.70;99.90;;;;;;4996067;28;20045;-94
2022/07/14 12:13:18;;;;;;;10.20;0.88;;;21.50;99.90;;;;;;5028371;28;20182;-94
2022/07/14 12:15:44;;;;;;;4.50;0.60;;;21.20;99.90;;;;;;4995511;28;20053;-96
2022/07/14 12:18:11;;;;;;;7.13;0.60;;;20.90;99.90;;;;;;4997928;28;20049;-94
2022/07/14 12:20:46;;;;;;;9.15;0.70;;;20.60;99.90;;;;;;5012102;28;20068;-94
2022/07/14 12:23:14;;;;;;;5.32;0.73;;;20.30;99.90;;;;;;4996762;28;20135;-96
2022/07/14 12:25:44;;;;;;;5.18;0.57;;;20.20;99.90;;;;;;4997090;28;20049;-94
2022/07/14 12:28:13;;;;;;;6.60;0.80;;;20.10;99.90;;;;;;4996520;28;20056;-95
2022/07/14 12:30:56;;;;;;;5.75;0.57;;;20.20;99.90;;;;;;4995880;28;20414;-92
2022/07/14 12:33:24;;;;;;;;;;;20.60;99.90;;;;;;4996001;28;20394;-94
2022/07/14 12:35:53;;;;;;;8.32;0.80;;;21.00;99.90;;;;;;5011689;28;19931;-96
2022/07/14 12:38:19;;;;;;;5.57;0.63;;;21.30;99.90;;;;;;5001708;28;20045;-94
2022/07/14 12:40:52;;;;;;;4.13;0.50;;;21.60;99.90;;;;;;4997493;28;20132;-92
2022/07/14 12:43:25;;;;;;;9.45;0.65;;;21.30;99.90;;;;;;4996947;28;20486;-94
2022/07/14 12:46:18;;;;;;;7.72;0.70;;;21.30;99.90;;;;;;5013667;28;20044;-94
2022/07/14 12:48:49;;;;;;;7.00;0.90;;;21.20;99.90;;;;;;5017659;28;20110;-94
2022/07/14 12:51:17;;;;;;;7.65;0.77;;;21.10;99.90;;;;;;5047605;28;20060;-94
2022/07/14 12:53:55;;;;;;;6.65;0.70;;;21.00;99.90;;;;;;5046452;28;20044;-95
2022/07/14 12:56:22;;;;;;;6.25;0.50;;;20.90;99.90;;;;;;5014233;28;20135;-94
2022/07/14 12:58:48;;;;;;;3.88;0.50;;;20.70;99.90;;;;;;5015315;28;20099;-94
2022/07/14 13:01:14;;;;;;;6.80;0.90;;;20.70;99.90;;;;;;5017859;28;20167;-95
2022/07/14 13:03:39;;;;;;;8.95;0.70;;;20.80;99.90;;;;;;5018564;28;20049;-93
2022/07/14 13:06:05;;;;;;;3.92;0.60;;;21.00;99.90;;;;;;5014056;28;20041;-93
2022/07/14 13:08:32;;;;;;;5.78;0.60;;;21.00;99.90;;;;;;5015345;28;20436;-94
2022/07/14 13:10:59;;;;;;;4.05;0.50;;;20.90;99.90;;;;;;5048287;28;20061;-93
2022/07/14 13:13:30;;;;;;;7.90;0.70;;;20.80;99.90;;;;;;5017069;28;20515;-94
2022/07/14 13:16:18;;;;;;;6.18;0.77;;;20.60;99.90;;;;;;5021477;28;20132;-95
2022/07/14 13:19:08;;;;;;;14.13;0.93;;;20.50;99.90;;;;;;5029147;28;20080;-94
2022/07/14 13:21:50;;;;;;;2.60;0.52;;;20.40;99.90;;;;;;5034055;28;20102;-94